Time;durP1;ratioP1;P1;durP2;ratioP2;P2;SDS_P1;SDS_P2;PMS_P1;PMS_P2;Temp;Humidity;BMP_temperature;BMP_pressure;BME280_temperature;BME280_humidity;BME280_pressure;Samples;Min_cycle;Max_cycle;Signal;HPM_P1;HPM_P2
2023/11/15 00:01:04;;;;;;;56.70;27.33;;;9.00;99.90;;;;;;5021058;28;20053;-72
2023/11/15 00:03:31;;;;;;;52.78;24.70;;;9.00;99.90;;;;;;5018241;28;20049;-69
2023/11/15 00:05:59;;;;;;;56.83;26.58;;;9.00;99.90;;;;;;5022357;28;20048;-72
2023/11/15 00:08:26;;;;;;;56.45;26.20;;;9.00;99.90;;;;;;5028698;28;20076;-69
2023/11/15 00:10:52;;;;;;;60.58;28.10;;;9.00;99.90;;;;;;5020110;28;20045;-71
2023/11/15 00:13:19;;;;;;;56.35;27.02;;;9.10;99.90;;;;;;5012191;28;20045;-70
2023/11/15 00:15:47;;;;;;;64.68;28.02;;;9.10;99.90;;;;;;5009251;28;20037;-71
2023/11/15 00:18:13;;;;;;;71.60;32.33;;;9.10;99.90;;;;;;5029034;28;20045;-70
2023/11/15 00:20:41;;;;;;;61.55;29.92;;;9.10;99.90;;;;;;5029484;28;20056;-72
2023/11/15 00:23:08;;;;;;;65.07;30.35;;;9.10;99.90;;;;;;5026195;28;20040;-71
2023/11/15 00:25:36;;;;;;;81.55;34.58;;;9.10;99.90;;;;;;5015801;28;20042;-71
2023/11/15 00:28:03;;;;;;;67.15;31.25;;;9.10;99.90;;;;;;5027822;28;20057;-71
2023/11/15 00:30:30;;;;;;;67.35;30.52;;;9.10;99.90;;;;;;5024204;28;20052;-71
2023/11/15 00:32:57;;;;;;;69.00;31.77;;;9.10;99.90;;;;;;5024387;28;20103;-71
2023/11/15 00:35:25;;;;;;;55.35;27.58;;;9.10;99.90;;;;;;5022198;28;20739;-71
2023/11/15 00:37:52;;;;;;;56.20;27.67;;;9.10;99.90;;;;;;5026995;28;20115;-70
2023/11/15 00:40:20;;;;;;;59.85;29.35;;;9.10;99.90;;;;;;5021220;28;20048;-73
2023/11/15 00:42:48;;;;;;;59.50;26.95;;;9.10;99.90;;;;;;5026394;28;20746;-72
2023/11/15 00:45:15;;;;;;;50.05;25.73;;;9.10;99.90;;;;;;5026437;28;20123;-70
2023/11/15 00:47:42;;;;;;;51.80;24.60;;;9.10;99.90;;;;;;5019173;28;20078;-71
2023/11/15 00:50:10;;;;;;;47.78;22.65;;;9.00;99.90;;;;;;5018721;28;20026;-71
2023/11/15 00:52:36;;;;;;;42.85;20.83;;;9.00;99.90;;;;;;5019901;28;20048;-71
2023/11/15 00:55:04;;;;;;;56.88;25.77;;;9.10;99.90;;;;;;5008743;28;20048;-70
2023/11/15 00:57:30;;;;;;;59.60;28.85;;;9.00;99.90;;;;;;5017803;28;20048;-70
2023/11/15 00:59:57;;;;;;;63.45;30.35;;;9.10;99.90;;;;;;5043204;28;20729;-70
2023/11/15 01:02:26;;;;;;;57.03;28.30;;;9.10;99.90;;;;;;5017566;28;20053;-71
2023/11/15 01:04:54;;;;;;;60.50;28.90;;;9.10;99.90;;;;;;5014403;28;20041;-71
2023/11/15 01:07:21;;;;;;;60.28;29.40;;;9.10;99.90;;;;;;5026484;28;20041;-70
2023/11/15 01:09:50;;;;;;;68.63;30.58;;;9.00;99.90;;;;;;5021290;28;20130;-72
2023/11/15 01:12:17;;;;;;;62.70;31.90;;;9.10;99.90;;;;;;5022139;28;20440;-69
2023/11/15 01:14:43;;;;;;;82.82;34.13;;;9.10;99.90;;;;;;5020442;28;20501;-69
2023/11/15 01:17:10;;;;;;;73.72;32.05;;;9.10;99.90;;;;;;5023006;28;20099;-71
2023/11/15 01:19:37;;;;;;;68.28;31.52;;;9.10;99.90;;;;;;5028598;28;20055;-69
2023/11/15 01:22:04;;;;;;;80.22;37.42;;;9.10;99.90;;;;;;5013506;28;20042;-70
2023/11/15 01:24:31;;;;;;;80.60;33.33;;;9.00;99.90;;;;;;5026490;28;20045;-70
2023/11/15 01:26:57;;;;;;;72.18;32.70;;;9.10;99.90;;;;;;5029779;28;20045;-71
2023/11/15 01:29:24;;;;;;;65.50;33.58;;;9.10;99.90;;;;;;5024445;28;20045;-70
2023/11/15 01:31:51;;;;;;;78.43;33.38;;;9.10;99.90;;;;;;5017448;28;20088;-72
2023/11/15 01:34:18;;;;;;;66.00;30.70;;;9.10;99.90;;;;;;5020768;28;20041;-70
2023/11/15 01:36:46;;;;;;;62.47;29.85;;;9.10;99.90;;;;;;5019446;28;20507;-70
2023/11/15 01:39:16;;;;;;;54.90;28.67;;;9.10;99.90;;;;;;5024675;28;20037;-70
2023/11/15 01:41:50;;;;;;;77.20;33.85;;;9.10;99.90;;;;;;5023440;28;20048;-71
2023/11/15 01:44:19;;;;;;;72.75;33.42;;;9.10;99.90;;;;;;5040947;28;20055;-70
2023/11/15 01:46:48;;;;;;;75.80;34.97;;;9.10;99.90;;;;;;5020154;28;20059;-70
2023/11/15 01:49:20;;;;;;;79.93;31.88;;;9.00;99.90;;;;;;5023901;28;20065;-70
2023/11/15 01:51:49;;;;;;;74.53;33.70;;;9.10;99.90;;;;;;5026644;28;20231;-71
2023/11/15 01:54:20;;;;;;;67.43;31.48;;;9.00;99.90;;;;;;5024585;28;20071;-71
2023/11/15 01:56:48;;;;;;;72.28;31.15;;;9.10;99.90;;;;;;5019925;28;20063;-70
2023/11/15 01:59:15;;;;;;;59.75;29.85;;;9.00;99.90;;;;;;5023806;28;20110;-71
2023/11/15 02:01:42;;;;;;;64.93;28.50;;;9.00;99.90;;;;;;5006781;28;20054;-70
2023/11/15 02:04:09;;;;;;;68.15;31.70;;;9.10;99.90;;;;;;5023626;28;20041;-71
2023/11/15 02:06:37;;;;;;;72.07;33.70;;;9.10;99.90;;;;;;5021972;28;20041;-71
2023/11/15 02:09:08;;;;;;;62.42;28.33;;;9.10;99.90;;;;;;5024126;28;20135;-70
2023/11/15 02:11:35;;;;;;;54.50;26.45;;;9.10;99.90;;;;;;5015928;28;20052;-70
2023/11/15 02:14:03;;;;;;;70.45;28.40;;;9.10;99.90;;;;;;5025887;28;20052;-72
2023/11/15 02:16:30;;;;;;;62.75;28.65;;;9.00;99.90;;;;;;5022662;28;20037;-71
2023/11/15 02:18:57;;;;;;;64.82;29.38;;;9.00;99.90;;;;;;5028612;28;20033;-72
2023/11/15 02:21:24;;;;;;;60.42;27.75;;;9.10;99.90;;;;;;5013528;28;20049;-72
2023/11/15 02:23:51;;;;;;;60.25;26.77;;;9.10;99.90;;;;;;5024775;28;20041;-71
2023/11/15 02:26:19;;;;;;;57.70;27.45;;;9.00;99.90;;;;;;5030905;28;20048;-71
2023/11/15 02:28:47;;;;;;;46.75;23.67;;;9.00;99.90;;;;;;5012600;28;20056;-71
2023/11/15 02:31:13;;;;;;;46.05;23.95;;;9.00;99.90;;;;;;5030603;28;20076;-72
2023/11/15 02:33:40;;;;;;;57.40;24.33;;;9.00;99.90;;;;;;5022709;28;20099;-71
2023/11/15 02:36:08;;;;;;;50.35;23.02;;;9.00;99.90;;;;;;5014455;28;20048;-72
2023/11/15 02:38:36;;;;;;;56.30;23.70;;;9.00;99.90;;;;;;5023615;28;20048;-71
2023/11/15 02:41:03;;;;;;;57.38;26.20;;;9.00;99.90;;;;;;5026009;28;20457;-72
2023/11/15 02:43:29;;;;;;;48.50;23.85;;;9.00;99.90;;;;;;5027887;28;20042;-73
2023/11/15 02:45:57;;;;;;;57.22;23.92;;;9.00;99.90;;;;;;5022689;28;20049;-73
2023/11/15 02:48:24;;;;;;;37.40;20.35;;;9.00;99.90;;;;;;5023430;28;20515;-73
2023/11/15 02:50:51;;;;;;;45.17;21.60;;;9.00;99.90;;;;;;5020835;28;20045;-72
2023/11/15 02:53:19;;;;;;;42.17;20.58;;;9.00;99.90;;;;;;5024929;28;20120;-72
2023/11/15 02:55:46;;;;;;;51.88;21.08;;;9.00;99.90;;;;;;5024089;28;20780;-72
2023/11/15 02:58:14;;;;;;;38.95;19.60;;;9.00;99.90;;;;;;5025589;28;20134;-71
2023/11/15 03:00:41;;;;;;;47.58;17.85;;;9.00;99.90;;;;;;5021006;28;20133;-73
2023/11/15 03:03:09;;;;;;;42.40;18.55;;;9.00;99.90;;;;;;5025838;28;20061;-71
2023/11/15 03:05:36;;;;;;;41.20;17.05;;;9.00;99.90;;;;;;5007016;28;20943;-72
2023/11/15 03:08:05;;;;;;;40.38;18.10;;;9.00;99.90;;;;;;5017603;28;20052;-71
2023/11/15 03:10:32;;;;;;;37.60;17.55;;;9.00;99.90;;;;;;5023366;28;20082;-72
2023/11/15 03:13:00;;;;;;;38.20;16.40;;;9.00;99.90;;;;;;5020656;28;20100;-72
2023/11/15 03:15:30;;;;;;;32.22;16.42;;;8.90;99.90;;;;;;5027352;28;20083;-72
2023/11/15 03:17:58;;;;;;;45.40;18.40;;;9.00;99.90;;;;;;5025875;28;20072;-72
2023/11/15 03:20:25;;;;;;;38.03;18.42;;;8.90;99.90;;;;;;5027453;28;20048;-71
2023/11/15 03:22:51;;;;;;;43.90;21.77;;;9.00;99.90;;;;;;5024993;28;20809;-72
2023/11/15 03:25:18;;;;;;;46.42;22.25;;;9.00;99.90;;;;;;5026943;28;20072;-72
2023/11/15 03:27:45;;;;;;;49.17;22.92;;;9.00;99.90;;;;;;5024049;28;20068;-71
2023/11/15 03:30:13;;;;;;;55.75;22.60;;;9.00;99.90;;;;;;5012402;28;20682;-73
2023/11/15 03:32:39;;;;;;;62.72;24.75;;;9.10;99.90;;;;;;5019232;28;20579;-72
2023/11/15 03:35:07;;;;;;;57.97;25.23;;;9.00;99.90;;;;;;5020113;28;20045;-72
2023/11/15 03:37:34;;;;;;;64.22;28.75;;;9.10;99.90;;;;;;5019746;28;20580;-72
2023/11/15 03:40:02;;;;;;;63.47;29.17;;;9.10;99.90;;;;;;5005562;28;20041;-72
2023/11/15 03:42:30;;;;;;;56.20;31.83;;;9.00;99.90;;;;;;5004842;28;20498;-70
2023/11/15 03:44:58;;;;;;;72.28;34.30;;;9.00;99.90;;;;;;5011263;28;20890;-72
2023/11/15 03:47:25;;;;;;;82.82;35.28;;;9.00;99.90;;;;;;5025385;28;20052;-72
2023/11/15 03:49:52;;;;;;;65.18;29.67;;;9.10;99.90;;;;;;5021780;28;20099;-71
2023/11/15 03:52:18;;;;;;;61.85;27.95;;;9.00;99.90;;;;;;5026000;28;20559;-71
2023/11/15 03:54:45;;;;;;;61.42;29.52;;;9.00;99.90;;;;;;5024079;28;20106;-72
2023/11/15 03:57:12;;;;;;;50.00;25.92;;;9.00;99.90;;;;;;5012778;28;20053;-70
2023/11/15 03:59:39;;;;;;;42.53;23.33;;;9.00;99.90;;;;;;5023803;28;20454;-69
2023/11/15 04:02:06;;;;;;;49.55;24.75;;;9.00;99.90;;;;;;5017944;28;20643;-72
2023/11/15 04:04:33;;;;;;;57.60;29.25;;;9.00;99.90;;;;;;5009919;28;20115;-70
2023/11/15 04:07:03;;;;;;;66.10;33.85;;;9.00;99.90;;;;;;5024123;28;20045;-71
2023/11/15 04:09:32;;;;;;;52.15;26.40;;;9.00;99.90;;;;;;5043618;28;20100;-70
2023/11/15 04:11:59;;;;;;;64.38;30.27;;;8.90;99.90;;;;;;5017579;28;20942;-72
2023/11/15 04:14:27;;;;;;;71.15;30.67;;;9.00;99.90;;;;;;5010963;28;20041;-72
2023/11/15 04:16:54;;;;;;;61.33;23.92;;;8.90;99.90;;;;;;5018100;28;20052;-71
2023/11/15 04:19:21;;;;;;;52.72;28.23;;;8.90;99.90;;;;;;5027656;28;20569;-72
2023/11/15 04:21:49;;;;;;;60.72;28.20;;;8.90;99.90;;;;;;5016105;28;20040;-72
2023/11/15 04:24:36;;;;;;;41.45;23.75;;;8.90;99.90;;;;;;5038667;28;20630;-71
2023/11/15 04:27:05;;;;;;;46.20;22.60;;;8.80;99.90;;;;;;5019844;28;20649;-71
2023/11/15 04:29:32;;;;;;;57.22;26.98;;;8.80;99.90;;;;;;5022316;28;20768;-71
2023/11/15 04:31:59;;;;;;;41.50;19.42;;;8.80;99.90;;;;;;5026001;28;20053;-71
2023/11/15 04:34:25;;;;;;;47.10;21.73;;;8.80;99.90;;;;;;5023243;28;20517;-71
2023/11/15 04:36:53;;;;;;;47.30;23.83;;;8.80;99.90;;;;;;5014760;28;20048;-72
2023/11/15 04:39:19;;;;;;;42.45;22.10;;;8.80;99.90;;;;;;5023801;28;20041;-71
2023/11/15 04:41:47;;;;;;;37.67;19.65;;;8.80;99.90;;;;;;5014869;28;20041;-71
2023/11/15 04:44:14;;;;;;;35.60;20.02;;;8.80;99.90;;;;;;5021321;28;20051;-72
2023/11/15 04:46:41;;;;;;;40.67;22.05;;;8.80;99.90;;;;;;5018155;28;20051;-70
2023/11/15 04:49:07;;;;;;;44.78;23.30;;;8.80;99.90;;;;;;5012319;28;20053;-71
2023/11/15 04:51:34;;;;;;;46.10;23.55;;;8.80;99.90;;;;;;5024061;28;20139;-71
2023/11/15 04:54:01;;;;;;;50.88;23.27;;;8.70;99.90;;;;;;5019069;28;20491;-70
2023/11/15 04:56:28;;;;;;;40.25;19.70;;;8.80;99.90;;;;;;5020746;28;20119;-71
2023/11/15 04:58:55;;;;;;;42.60;22.85;;;8.80;99.90;;;;;;5016142;28;20965;-71
2023/11/15 05:01:22;;;;;;;48.22;23.27;;;8.80;99.90;;;;;;5020124;28;20052;-70
2023/11/15 05:03:48;;;;;;;39.85;22.05;;;8.80;99.90;;;;;;5018670;28;20042;-72
2023/11/15 05:06:16;;;;;;;47.15;25.02;;;8.80;99.90;;;;;;5022033;28;20115;-72
2023/11/15 05:08:42;;;;;;;46.13;22.95;;;8.70;99.90;;;;;;5015599;28;20087;-70
2023/11/15 05:11:09;;;;;;;44.30;24.73;;;8.80;99.90;;;;;;5020399;28;20075;-70
2023/11/15 05:13:36;;;;;;;47.28;23.95;;;8.80;99.90;;;;;;5015767;28;20053;-70
2023/11/15 05:16:05;;;;;;;53.20;28.00;;;8.80;99.90;;;;;;5020290;28;20049;-72
2023/11/15 05:18:31;;;;;;;55.30;29.10;;;8.80;99.90;;;;;;5020045;28;20044;-72
2023/11/15 05:20:58;;;;;;;58.33;29.38;;;8.80;99.90;;;;;;5016190;28;20296;-71
2023/11/15 05:23:25;;;;;;;54.95;26.95;;;8.70;99.90;;;;;;5025314;28;20140;-70
2023/11/15 05:25:52;;;;;;;58.47;29.55;;;8.70;99.90;;;;;;5019089;28;20049;-72
2023/11/15 05:28:20;;;;;;;52.35;25.77;;;8.70;99.90;;;;;;5021879;28;20033;-70
2023/11/15 05:30:47;;;;;;;47.25;26.45;;;8.70;99.90;;;;;;5012125;28;20045;-71
2023/11/15 05:33:16;;;;;;;45.67;23.95;;;8.70;99.90;;;;;;5024091;28;20064;-71
2023/11/15 05:35:43;;;;;;;47.63;25.20;;;8.70;99.90;;;;;;5016492;28;20099;-71
2023/11/15 05:38:10;;;;;;;54.78;24.30;;;8.80;99.90;;;;;;5008332;28;20152;-70
2023/11/15 05:40:37;;;;;;;44.17;23.60;;;8.80;99.90;;;;;;5022069;28;20107;-72
2023/11/15 05:43:04;;;;;;;55.13;27.30;;;8.80;99.90;;;;;;5019163;28;20122;-71
2023/11/15 05:45:31;;;;;;;51.97;26.60;;;8.80;99.90;;;;;;5022657;28;20048;-71
2023/11/15 05:47:58;;;;;;;48.42;25.25;;;8.80;99.90;;;;;;5021164;28;20049;-71
2023/11/15 05:50:25;;;;;;;49.50;26.92;;;8.80;99.90;;;;;;5024635;28;20657;-71
2023/11/15 05:52:55;;;;;;;52.83;27.83;;;8.80;99.90;;;;;;5022012;28;20041;-72
2023/11/15 05:55:21;;;;;;;54.38;25.52;;;8.80;99.90;;;;;;5022994;28;20042;-71
2023/11/15 05:57:48;;;;;;;44.17;25.00;;;8.80;99.90;;;;;;5027250;28;20049;-71
2023/11/15 06:00:19;;;;;;;55.40;27.75;;;8.80;99.90;;;;;;5025682;28;20057;-71
2023/11/15 06:02:50;;;;;;;45.20;25.60;;;8.80;99.90;;;;;;5025709;28;20055;-70
2023/11/15 06:05:18;;;;;;;51.95;23.65;;;8.70;99.90;;;;;;5028316;28;20131;-71
2023/11/15 06:07:45;;;;;;;48.60;25.92;;;8.80;99.90;;;;;;5028500;28;20129;-71
2023/11/15 06:10:12;;;;;;;53.15;27.25;;;8.80;99.90;;;;;;5030565;28;20049;-71
2023/11/15 06:12:40;;;;;;;54.40;27.90;;;8.80;99.90;;;;;;5024025;28;20620;-71
2023/11/15 06:15:08;;;;;;;50.10;27.67;;;8.80;99.90;;;;;;5027648;28;20063;-73
2023/11/15 06:17:36;;;;;;;48.17;26.58;;;8.80;99.90;;;;;;5024947;28;20033;-73
2023/11/15 06:20:05;;;;;;;47.45;27.85;;;8.80;99.90;;;;;;5020757;28;20036;-73
2023/11/15 06:22:33;;;;;;;51.45;24.83;;;8.80;99.90;;;;;;5029134;28;20060;-74
2023/11/15 06:25:00;;;;;;;50.17;28.30;;;8.80;99.90;;;;;;5023732;28;20041;-72
2023/11/15 06:27:27;;;;;;;49.72;26.50;;;8.80;99.90;;;;;;5026118;28;20037;-72
2023/11/15 06:29:55;;;;;;;49.70;24.95;;;8.80;99.90;;;;;;5041022;28;20056;-71
2023/11/15 06:32:23;;;;;;;43.70;26.10;;;8.80;99.90;;;;;;5027371;28;20628;-73
2023/11/15 06:34:52;;;;;;;43.65;24.70;;;8.80;99.90;;;;;;5022312;28;20045;-72
2023/11/15 06:37:19;;;;;;;46.83;25.17;;;8.70;99.90;;;;;;5023011;28;20094;-71
2023/11/15 06:39:48;;;;;;;45.63;22.13;;;8.70;99.90;;;;;;5022239;28;20040;-73
2023/11/15 06:42:15;;;;;;;38.58;19.00;;;8.70;99.90;;;;;;5028381;28;20672;-72
2023/11/15 06:44:42;;;;;;;35.88;19.48;;;8.70;99.90;;;;;;5022033;28;20099;-71
2023/11/15 06:47:09;;;;;;;40.83;20.65;;;8.70;99.90;;;;;;5008659;28;20060;-72
2023/11/15 06:49:36;;;;;;;35.92;19.15;;;8.70;99.90;;;;;;5026339;28;20045;-72
2023/11/15 06:52:05;;;;;;;33.95;19.52;;;8.70;99.90;;;;;;5020981;28;20573;-71
2023/11/15 06:54:32;;;;;;;30.67;16.70;;;8.70;99.90;;;;;;5027620;28;20222;-72
2023/11/15 06:56:59;;;;;;;34.70;18.10;;;8.60;99.90;;;;;;5017965;28;20136;-71
2023/11/15 06:59:26;;;;;;;33.85;19.90;;;8.70;99.90;;;;;;5027044;28;20152;-72
2023/11/15 07:01:53;;;;;;;39.15;21.17;;;8.70;99.90;;;;;;5023638;28;20049;-70
2023/11/15 07:04:21;;;;;;;55.88;24.10;;;8.70;99.90;;;;;;5024596;28;20044;-72
2023/11/15 07:06:49;;;;;;;45.88;23.92;;;8.60;99.90;;;;;;5020723;28;20700;-72
2023/11/15 07:09:16;;;;;;;51.22;29.65;;;8.70;99.90;;;;;;5030887;28;20069;-71
2023/11/15 07:11:46;;;;;;;61.28;29.15;;;8.70;99.90;;;;;;5024154;28;20041;-72
2023/11/15 07:14:17;;;;;;;54.25;28.10;;;8.70;99.90;;;;;;5026121;28;20135;-70
2023/11/15 07:16:55;;;;;;;46.22;26.77;;;8.70;99.90;;;;;;5020258;28;20697;-70
2023/11/15 07:19:24;;;;;;;50.53;26.15;;;8.70;99.90;;;;;;5024780;28;20557;-72
2023/11/15 07:21:54;;;;;;;40.03;22.20;;;8.70;99.90;;;;;;5018826;28;20044;-71
2023/11/15 07:24:21;;;;;;;34.40;20.20;;;8.60;99.90;;;;;;5023374;28;20056;-71
2023/11/15 07:26:48;;;;;;;32.75;21.38;;;8.60;99.90;;;;;;5019386;28;20045;-71
2023/11/15 07:29:18;;;;;;;31.17;20.27;;;8.60;99.90;;;;;;5022392;28;20080;-72
2023/11/15 07:31:52;;;;;;;30.05;16.95;;;8.60;99.90;;;;;;5024304;28;20122;-70
2023/11/15 07:34:23;;;;;;;;;;;8.50;99.90;;;;;;5031306;28;20065;-71
2023/11/15 07:36:53;;;;;;;25.55;14.68;;;8.50;99.90;;;;;;5021088;28;19935;-72
2023/11/15 07:39:20;;;;;;;19.60;12.38;;;8.50;99.90;;;;;;5009362;28;20071;-71
2023/11/15 07:41:47;;;;;;;17.10;12.68;;;8.40;99.90;;;;;;5022470;28;20061;-72
2023/11/15 07:44:16;;;;;;;17.60;13.38;;;8.40;99.90;;;;;;5009985;28;20140;-70
2023/11/15 07:46:46;;;;;;;13.45;9.93;;;8.40;99.90;;;;;;5025871;28;20798;-72
2023/11/15 07:49:18;;;;;;;15.98;10.43;;;8.30;99.90;;;;;;5026967;28;20047;-72
2023/11/15 07:51:45;;;;;;;16.80;10.23;;;8.40;99.90;;;;;;5020067;28;20164;-71
2023/11/15 07:54:13;;;;;;;15.00;10.07;;;8.40;99.90;;;;;;5027306;28;20037;-72
2023/11/15 07:56:41;;;;;;;14.50;10.15;;;8.40;99.90;;;;;;5026571;28;20037;-72
2023/11/15 07:59:08;;;;;;;14.98;11.52;;;8.40;99.90;;;;;;5039544;28;20106;-71
2023/11/15 08:01:37;;;;;;;15.15;10.18;;;8.40;99.90;;;;;;5022295;28;20546;-71
2023/11/15 08:04:06;;;;;;;12.88;10.90;;;8.40;99.90;;;;;;5022614;28;20065;-69
2023/11/15 08:06:35;;;;;;;17.15;11.18;;;8.40;99.90;;;;;;5026902;28;20154;-70
2023/11/15 08:09:07;;;;;;;9.77;8.00;;;8.50;99.90;;;;;;5019441;28;20630;-70
2023/11/15 08:11:37;;;;;;;16.05;7.93;;;8.50;99.90;;;;;;5020702;28;20073;-71
2023/11/15 08:14:06;;;;;;;11.07;8.90;;;8.40;99.90;;;;;;5021312;28;20076;-71
2023/11/15 08:16:33;;;;;;;11.15;6.97;;;8.40;99.90;;;;;;5024310;28;20044;-71
2023/11/15 08:19:01;;;;;;;10.23;9.20;;;8.40;99.90;;;;;;5014649;28;20046;-72
2023/11/15 08:21:29;;;;;;;8.15;6.68;;;8.40;99.90;;;;;;5025722;28;20118;-70
2023/11/15 08:23:56;;;;;;;9.05;6.65;;;8.30;99.90;;;;;;5021035;28;20526;-72
2023/11/15 08:26:22;;;;;;;6.20;5.60;;;8.40;99.90;;;;;;5023803;28;20037;-70
2023/11/15 08:28:49;;;;;;;11.38;7.57;;;8.30;99.90;;;;;;5025046;28;20037;-70
2023/11/15 08:31:17;;;;;;;9.57;7.53;;;8.30;99.90;;;;;;5025859;28;20099;-70
2023/11/15 08:33:44;;;;;;;8.00;6.75;;;8.30;99.90;;;;;;5022247;28;20045;-70
2023/11/15 08:36:12;;;;;;;9.80;6.70;;;8.30;99.90;;;;;;5022926;28;20041;-71
2023/11/15 08:38:39;;;;;;;7.93;6.70;;;8.30;99.90;;;;;;5025368;28;20044;-70
2023/11/15 08:41:06;;;;;;;9.43;8.48;;;8.20;99.90;;;;;;5023816;28;20675;-71
2023/11/15 08:43:33;;;;;;;9.13;8.43;;;8.20;99.90;;;;;;5024635;28;20037;-71
2023/11/15 08:46:03;;;;;;;12.68;8.70;;;8.20;99.90;;;;;;5020287;28;20052;-70
2023/11/15 08:48:33;;;;;;;9.82;8.80;;;8.30;99.90;;;;;;5025286;28;20094;-72
2023/11/15 08:51:03;;;;;;;9.70;8.57;;;8.30;99.90;;;;;;5016123;28;20095;-71
2023/11/15 08:53:30;;;;;;;10.68;9.68;;;8.30;99.90;;;;;;5017195;28;20069;-71
2023/11/15 08:55:57;;;;;;;11.43;9.85;;;8.40;99.90;;;;;;5020631;28;20037;-70
2023/11/15 08:58:27;;;;;;;9.35;8.38;;;8.30;99.90;;;;;;5032057;28;21222;-70
2023/11/15 09:01:01;;;;;;;9.82;8.68;;;8.40;99.90;;;;;;5018539;28;20045;-70
2023/11/15 09:03:28;;;;;;;9.18;8.25;;;8.40;99.90;;;;;;5023274;28;20056;-70
2023/11/15 09:05:56;;;;;;;9.32;8.40;;;8.50;99.90;;;;;;5018829;28;20111;-70
2023/11/15 09:08:22;;;;;;;9.50;8.52;;;8.50;99.90;;;;;;5023672;28;20042;-72
2023/11/15 09:10:50;;;;;;;9.80;8.70;;;8.50;99.90;;;;;;5028913;28;20060;-71
2023/11/15 09:13:18;;;;;;;7.78;7.07;;;8.50;99.90;;;;;;5023008;28;20107;-72
2023/11/15 09:15:52;;;;;;;8.32;7.47;;;8.50;99.90;;;;;;5018241;28;20041;-71
2023/11/15 09:18:21;;;;;;;6.38;5.88;;;8.50;99.90;;;;;;5006866;28;20041;-71
2023/11/15 09:20:49;;;;;;;7.82;6.97;;;8.40;99.90;;;;;;5023079;28;20048;-70
2023/11/15 09:23:16;;;;;;;9.18;6.45;;;8.40;99.90;;;;;;5024684;28;20204;-71
2023/11/15 09:25:59;;;;;;;7.95;7.30;;;8.40;99.90;;;;;;5018984;28;20053;-71
2023/11/15 09:28:26;;;;;;;7.78;6.63;;;8.40;99.90;;;;;;5025849;28;20041;-71
2023/11/15 09:30:53;;;;;;;8.10;7.40;;;8.40;99.90;;;;;;5029251;28;20124;-70
2023/11/15 09:33:20;;;;;;;8.65;7.43;;;8.60;99.90;;;;;;5025607;28;20151;-71
2023/11/15 09:35:48;;;;;;;8.27;7.57;;;8.60;99.90;;;;;;5024515;28;20033;-70
2023/11/15 09:38:26;;;;;;;8.05;7.00;;;8.70;99.90;;;;;;5026128;28;20033;-71
2023/11/15 09:40:52;;;;;;;10.52;7.60;;;8.70;99.90;;;;;;5024052;28;20041;-71
2023/11/15 09:43:20;;;;;;;7.20;6.50;;;8.70;99.90;;;;;;5024840;28;20075;-72
2023/11/15 09:45:48;;;;;;;6.85;6.22;;;8.60;99.90;;;;;;5019566;28;20064;-72
2023/11/15 09:48:14;;;;;;;8.18;6.03;;;8.50;99.90;;;;;;5022442;28;22088;-71
2023/11/15 09:50:48;;;;;;;6.93;6.10;;;8.40;99.90;;;;;;5024393;28;20627;-72
2023/11/15 09:53:18;;;;;;;8.05;6.88;;;8.30;99.90;;;;;;5021677;28;21605;-72
2023/11/15 09:55:47;;;;;;;5.75;5.18;;;8.30;99.90;;;;;;5024339;28;20048;-71
2023/11/15 09:58:14;;;;;;;8.43;5.07;;;8.30;99.90;;;;;;5022577;28;20374;-71
2023/11/15 10:00:41;;;;;;;7.82;4.57;;;8.30;99.90;;;;;;5022835;28;20064;-71
2023/11/15 10:03:08;;;;;;;4.50;4.10;;;8.20;99.90;;;;;;5019482;28;20045;-71
2023/11/15 10:05:37;;;;;;;5.70;4.57;;;8.20;99.90;;;;;;5022792;28;20124;-71
2023/11/15 10:08:11;;;;;;;5.55;5.03;;;8.10;99.90;;;;;;5021860;28;20033;-71
2023/11/15 10:10:40;;;;;;;5.53;5.10;;;8.10;99.90;;;;;;5009832;28;20675;-71
2023/11/15 10:13:14;;;;;;;7.28;6.63;;;8.10;99.90;;;;;;5020013;28;20087;-72
2023/11/15 10:15:46;;;;;;;6.45;5.95;;;8.00;99.90;;;;;;5026843;28;20119;-70
2023/11/15 10:18:15;;;;;;;6.30;5.90;;;8.00;99.90;;;;;;5017046;28;20046;-70
2023/11/15 10:20:43;;;;;;;6.60;6.20;;;8.10;99.90;;;;;;5026947;28;20067;-71
2023/11/15 10:23:12;;;;;;;7.22;6.72;;;8.00;99.90;;;;;;5020327;28;20040;-72
2023/11/15 10:25:47;;;;;;;8.07;7.40;;;8.00;99.90;;;;;;5021727;28;20045;-72
2023/11/15 10:28:15;;;;;;;8.60;7.85;;;8.00;99.90;;;;;;5020820;28;20041;-70
2023/11/15 10:30:42;;;;;;;9.48;7.78;;;8.00;99.90;;;;;;5012494;28;20049;-71
2023/11/15 10:33:10;;;;;;;8.43;6.47;;;8.00;99.90;;;;;;5022951;28;20095;-72
2023/11/15 10:35:38;;;;;;;9.65;5.90;;;8.10;99.90;;;;;;5010586;28;20040;-70
2023/11/15 10:38:14;;;;;;;8.27;5.18;;;8.10;99.90;;;;;;5018684;28;20048;-72
2023/11/15 10:40:42;;;;;;;13.02;7.65;;;8.00;99.90;;;;;;5024139;28;20136;-72
2023/11/15 10:43:12;;;;;;;13.52;7.88;;;8.00;99.90;;;;;;5024479;28;20033;-72
2023/11/15 10:45:43;;;;;;;6.57;5.82;;;8.00;99.90;;;;;;5023754;28;20041;-71
2023/11/15 10:48:12;;;;;;;7.82;7.00;;;8.00;99.90;;;;;;5014323;28;20068;-72
2023/11/15 10:50:45;;;;;;;6.47;6.00;;;8.00;99.90;;;;;;5023940;28;20128;-71
2023/11/15 10:53:12;;;;;;;6.68;6.00;;;8.00;99.90;;;;;;5004603;28;20117;-71
2023/11/15 10:55:40;;;;;;;8.95;8.07;;;8.00;99.90;;;;;;5027480;28;20060;-70
2023/11/15 10:58:11;;;;;;;8.32;7.70;;;8.10;99.90;;;;;;5024876;28;20048;-71
2023/11/15 11:00:43;;;;;;;9.10;8.38;;;8.10;99.90;;;;;;5034324;28;20045;-72
2023/11/15 11:03:14;;;;;;;8.98;8.18;;;8.10;99.90;;;;;;5026400;28;20144;-70
2023/11/15 11:05:57;;;;;;;8.32;7.65;;;8.10;99.90;;;;;;5022818;28;20052;-71
2023/11/15 11:08:34;;;;;;;8.52;7.75;;;8.10;99.90;;;;;;5024992;28;20048;-70
2023/11/15 11:11:11;;;;;;;15.85;8.70;;;8.10;99.90;;;;;;5028180;28;20041;-71
2023/11/15 11:13:45;;;;;;;10.23;9.23;;;8.10;99.90;;;;;;5031146;28;20102;-72
2023/11/15 11:16:31;;;;;;;9.67;8.77;;;8.10;99.90;;;;;;5009180;28;20037;-71
2023/11/15 11:19:08;;;;;;;9.98;9.02;;;8.20;99.90;;;;;;5041373;28;20053;-71
2023/11/15 11:22:02;;;;;;;10.88;9.82;;;8.20;99.90;;;;;;5032803;28;20029;-72
2023/11/15 11:24:31;;;;;;;9.82;9.02;;;8.20;99.90;;;;;;5014845;28;20057;-70
2023/11/15 11:27:16;;;;;;;10.90;10.02;;;8.20;99.90;;;;;;5022504;28;20037;-72
2023/11/15 11:29:58;;;;;;;11.40;10.38;;;8.20;99.90;;;;;;5029469;28;20045;-71
2023/11/15 11:32:27;;;;;;;10.55;9.75;;;8.20;99.90;;;;;;5024576;28;20044;-71
2023/11/15 11:35:00;;;;;;;9.43;8.73;;;8.20;99.90;;;;;;5025786;28;20037;-71
2023/11/15 11:37:43;;;;;;;12.93;8.88;;;8.10;99.90;;;;;;5026612;28;20063;-70
2023/11/15 11:40:18;;;;;;;8.15;7.15;;;8.10;99.90;;;;;;5038871;28;20525;-71
2023/11/15 11:42:47;;;;;;;;;;;8.10;99.90;;;;;;5027100;28;20049;-71
2023/11/15 11:45:15;;;;;;;9.65;8.95;;;8.10;99.90;;;;;;5024271;28;20402;-71
2023/11/15 11:47:46;;;;;;;10.93;9.57;;;8.20;99.90;;;;;;5013480;28;20049;-72
2023/11/15 11:50:25;;;;;;;10.30;9.23;;;8.20;99.90;;;;;;5041915;28;20045;-72
2023/11/15 11:52:53;;;;;;;10.55;9.65;;;8.20;99.90;;;;;;5012779;28;20049;-71
2023/11/15 11:55:21;;;;;;;12.32;11.30;;;8.40;99.90;;;;;;5024345;28;20037;-70
2023/11/15 11:57:49;;;;;;;13.45;12.10;;;8.40;99.90;;;;;;5024054;28;20527;-70
2023/11/15 12:00:16;;;;;;;15.20;13.90;;;8.40;99.90;;;;;;5027942;28;20126;-70
2023/11/15 12:02:53;;;;;;;16.65;12.02;;;8.40;99.90;;;;;;5023970;28;20068;-69
2023/11/15 12:05:25;;;;;;;17.33;13.27;;;8.50;99.90;;;;;;5023616;28;20053;-70
2023/11/15 12:07:54;;;;;;;18.23;15.00;;;8.50;99.90;;;;;;5023770;28;20559;-69
2023/11/15 12:10:22;;;;;;;17.48;13.85;;;8.50;99.90;;;;;;5023691;28;20566;-72
2023/11/15 12:13:04;;;;;;;20.48;15.65;;;8.60;99.90;;;;;;5023178;28;20495;-73
2023/11/15 12:15:35;;;;;;;27.15;17.35;;;8.60;99.90;;;;;;5046415;28;20047;-70
2023/11/15 12:18:02;;;;;;;23.00;16.55;;;8.60;99.90;;;;;;5042288;28;20038;-72
2023/11/15 12:20:35;;;;;;;28.30;18.42;;;8.70;99.90;;;;;;5028415;28;20470;-70
2023/11/15 12:23:12;;;;;;;35.15;19.80;;;8.70;99.90;;;;;;5017530;28;20103;-70
2023/11/15 12:25:51;;;;;;;27.00;18.98;;;8.80;99.90;;;;;;5027785;28;20717;-71
2023/11/15 12:28:25;;;;;;;23.17;18.02;;;8.80;99.90;;;;;;5025729;28;20041;-70
2023/11/15 12:30:54;;;;;;;24.80;18.92;;;8.80;99.90;;;;;;5031228;28;20049;-71
2023/11/15 12:33:22;;;;;;;29.65;19.95;;;8.90;99.90;;;;;;5021272;28;20045;-70
2023/11/15 12:35:52;;;;;;;29.50;21.17;;;8.90;99.90;;;;;;5024879;28;20057;-68
2023/11/15 12:38:20;;;;;;;35.72;22.13;;;9.00;99.90;;;;;;5007657;28;20449;-69
2023/11/15 12:40:47;;;;;;;31.08;21.90;;;9.00;99.90;;;;;;5009390;28;20052;-69
2023/11/15 12:43:17;;;;;;;35.70;22.08;;;9.00;99.90;;;;;;5009704;28;20689;-69
2023/11/15 12:45:44;;;;;;;34.60;22.75;;;9.00;99.90;;;;;;5020973;28;20581;-70
2023/11/15 12:48:11;;;;;;;38.50;24.10;;;9.00;99.90;;;;;;5017894;28;20131;-70
2023/11/15 12:50:40;;;;;;;44.78;23.25;;;9.00;99.90;;;;;;5024264;28;20049;-69